Caldazinha, Brazil
Current Conditions -  °F | °C
As of 2:00 PM on Thursday 23 Oct 2014 (Local Time) from SBGO Reporting Station
Thunderstorm Thunderstorm  
Wind Chill: 68°   Ceiling: Unl
Heat Index: 68°   Visibility: 5mi
Dew Point: 63°   Wind: 2mph
Humidity: 83%   Direction: NA
Pressure: NA   Gusts: NA
Location:  16.71°S, 49°W
Report Text: SBGO 231600Z VRB02KT 8000 2000N TSRA SCT035 FEW040CB 20/17 Q1018
Loading
Personal Weather Stations






























Interactive Weather Map New forecast layout! Learn more

10-Day Weather Forecast

Advertisements
Track Severe Weather on mobile